sensor_id;sensor_type;location;lat;lon;timestamp;P1;durP1;ratioP1;P2;durP2;ratioP2
82727;SDS011;72459;50.110;8.750;2024-01-16T00:01:44;4.03;;;1.33;;
82727;SDS011;72459;50.110;8.750;2024-01-16T00:04:09;2.97;;;1.52;;
82727;SDS011;72459;50.110;8.750;2024-01-16T00:06:41;4.30;;;1.95;;
82727;SDS011;72459;50.110;8.750;2024-01-16T00:09:07;4.55;;;1.80;;
82727;SDS011;72459;50.110;8.750;2024-01-16T00:11:33;2.90;;;1.40;;
82727;SDS011;72459;50.110;8.750;2024-01-16T00:14:00;3.80;;;1.70;;
82727;SDS011;72459;50.110;8.750;2024-01-16T00:16:25;3.65;;;1.58;;
82727;SDS011;72459;50.110;8.750;2024-01-16T00:18:50;5.13;;;2.03;;
82727;SDS011;72459;50.110;8.750;2024-01-16T00:21:17;2.83;;;1.60;;
82727;SDS011;72459;50.110;8.750;2024-01-16T00:23:42;4.82;;;1.70;;
82727;SDS011;72459;50.110;8.750;2024-01-16T00:26:07;6.97;;;2.03;;
82727;SDS011;72459;50.110;8.750;2024-01-16T00:28:33;4.07;;;1.50;;
82727;SDS011;72459;50.110;8.750;2024-01-16T00:30:58;3.08;;;1.98;;
82727;SDS011;72459;50.110;8.750;2024-01-16T00:33:24;4.00;;;1.60;;
82727;SDS011;72459;50.110;8.750;2024-01-16T00:35:50;5.25;;;1.77;;
82727;SDS011;72459;50.110;8.750;2024-01-16T00:38:16;6.18;;;2.20;;
82727;SDS011;72459;50.110;8.750;2024-01-16T00:40:41;2.60;;;1.40;;
82727;SDS011;72459;50.110;8.750;2024-01-16T00:43:06;4.70;;;1.98;;
82727;SDS011;72459;50.110;8.750;2024-01-16T00:45:32;2.88;;;1.88;;
82727;SDS011;72459;50.110;8.750;2024-01-16T00:47:58;4.47;;;1.70;;
82727;SDS011;72459;50.110;8.750;2024-01-16T00:50:23;4.97;;;3.05;;
82727;SDS011;72459;50.110;8.750;2024-01-16T00:52:49;4.70;;;1.95;;
82727;SDS011;72459;50.110;8.750;2024-01-16T00:55:15;3.20;;;1.80;;
82727;SDS011;72459;50.110;8.750;2024-01-16T00:57:40;6.97;;;2.10;;
82727;SDS011;72459;50.110;8.750;2024-01-16T01:00:05;4.40;;;2.50;;
82727;SDS011;72459;50.110;8.750;2024-01-16T01:02:31;4.13;;;1.70;;
82727;SDS011;72459;50.110;8.750;2024-01-16T01:04:57;6.18;;;1.92;;
82727;SDS011;72459;50.110;8.750;2024-01-16T01:07:22;5.05;;;1.75;;
82727;SDS011;72459;50.110;8.750;2024-01-16T01:09:50;4.30;;;2.15;;
82727;SDS011;72459;50.110;8.750;2024-01-16T01:12:15;5.10;;;1.87;;
82727;SDS011;72459;50.110;8.750;2024-01-16T01:14:41;4.07;;;2.22;;
82727;SDS011;72459;50.110;8.750;2024-01-16T01:17:06;4.47;;;2.10;;
82727;SDS011;72459;50.110;8.750;2024-01-16T01:19:32;4.00;;;2.00;;
82727;SDS011;72459;50.110;8.750;2024-01-16T01:21:57;3.70;;;1.92;;
82727;SDS011;72459;50.110;8.750;2024-01-16T01:24:23;5.40;;;1.97;;
82727;SDS011;72459;50.110;8.750;2024-01-16T01:26:48;5.07;;;2.10;;
82727;SDS011;72459;50.110;8.750;2024-01-16T01:29:15;6.40;;;2.90;;
82727;SDS011;72459;50.110;8.750;2024-01-16T01:31:44;4.03;;;2.20;;
82727;SDS011;72459;50.110;8.750;2024-01-16T01:34:10;3.90;;;1.80;;
82727;SDS011;72459;50.110;8.750;2024-01-16T01:36:36;5.97;;;2.07;;
82727;SDS011;72459;50.110;8.750;2024-01-16T01:39:01;3.78;;;2.05;;
82727;SDS011;72459;50.110;8.750;2024-01-16T01:41:28;4.20;;;2.38;;
82727;SDS011;72459;50.110;8.750;2024-01-16T01:43:53;4.75;;;1.83;;
82727;SDS011;72459;50.110;8.750;2024-01-16T01:46:19;5.10;;;2.38;;
82727;SDS011;72459;50.110;8.750;2024-01-16T01:48:46;4.28;;;2.10;;
82727;SDS011;72459;50.110;8.750;2024-01-16T01:51:13;6.70;;;2.08;;
82727;SDS011;72459;50.110;8.750;2024-01-16T01:53:40;6.70;;;2.90;;
82727;SDS011;72459;50.110;8.750;2024-01-16T01:56:10;5.05;;;2.33;;
82727;SDS011;72459;50.110;8.750;2024-01-16T01:58:38;4.25;;;2.17;;
82727;SDS011;72459;50.110;8.750;2024-01-16T02:01:08;6.93;;;2.20;;
82727;SDS011;72459;50.110;8.750;2024-01-16T02:03:41;6.80;;;2.40;;
82727;SDS011;72459;50.110;8.750;2024-01-16T02:06:10;5.50;;;2.38;;
82727;SDS011;72459;50.110;8.750;2024-01-16T02:08:36;3.83;;;2.45;;
82727;SDS011;72459;50.110;8.750;2024-01-16T02:11:01;6.85;;;2.28;;
82727;SDS011;72459;50.110;8.750;2024-01-16T02:13:27;5.97;;;2.30;;
82727;SDS011;72459;50.110;8.750;2024-01-16T02:15:53;6.25;;;1.92;;
82727;SDS011;72459;50.110;8.750;2024-01-16T02:18:18;4.18;;;2.53;;
82727;SDS011;72459;50.110;8.750;2024-01-16T02:20:44;4.10;;;2.30;;
82727;SDS011;72459;50.110;8.750;2024-01-16T02:23:11;6.82;;;2.72;;
82727;SDS011;72459;50.110;8.750;2024-01-16T02:25:39;6.93;;;3.05;;
82727;SDS011;72459;50.110;8.750;2024-01-16T02:28:08;5.15;;;2.63;;
82727;SDS011;72459;50.110;8.750;2024-01-16T02:30:35;7.63;;;2.45;;
82727;SDS011;72459;50.110;8.750;2024-01-16T02:33:00;4.65;;;2.17;;
82727;SDS011;72459;50.110;8.750;2024-01-16T02:35:26;5.47;;;2.80;;
82727;SDS011;72459;50.110;8.750;2024-01-16T02:37:51;5.03;;;2.58;;
82727;SDS011;72459;50.110;8.750;2024-01-16T02:40:17;5.60;;;2.30;;
82727;SDS011;72459;50.110;8.750;2024-01-16T02:42:42;3.92;;;2.55;;
82727;SDS011;72459;50.110;8.750;2024-01-16T02:45:07;3.90;;;2.85;;
82727;SDS011;72459;50.110;8.750;2024-01-16T02:47:33;6.38;;;2.78;;
82727;SDS011;72459;50.110;8.750;2024-01-16T02:49:59;3.72;;;2.28;;
82727;SDS011;72459;50.110;8.750;2024-01-16T02:52:25;3.58;;;2.58;;
82727;SDS011;72459;50.110;8.750;2024-01-16T02:54:50;5.53;;;2.50;;
82727;SDS011;72459;50.110;8.750;2024-01-16T02:57:16;7.60;;;2.92;;
82727;SDS011;72459;50.110;8.750;2024-01-16T02:59:44;5.95;;;2.60;;
82727;SDS011;72459;50.110;8.750;2024-01-16T03:02:10;4.72;;;2.35;;
82727;SDS011;72459;50.110;8.750;2024-01-16T03:04:36;3.83;;;2.40;;
82727;SDS011;72459;50.110;8.750;2024-01-16T03:07:02;5.32;;;2.60;;
82727;SDS011;72459;50.110;8.750;2024-01-16T03:09:28;5.88;;;2.67;;
82727;SDS011;72459;50.110;8.750;2024-01-16T03:11:53;4.20;;;2.65;;
82727;SDS011;72459;50.110;8.750;2024-01-16T03:14:18;6.93;;;2.90;;
82727;SDS011;72459;50.110;8.750;2024-01-16T03:16:44;4.20;;;2.70;;
82727;SDS011;72459;50.110;8.750;2024-01-16T03:19:09;9.10;;;3.28;;
82727;SDS011;72459;50.110;8.750;2024-01-16T03:21:35;7.35;;;2.88;;
82727;SDS011;72459;50.110;8.750;2024-01-16T03:24:01;7.13;;;2.75;;
82727;SDS011;72459;50.110;8.750;2024-01-16T03:26:27;10.27;;;3.42;;
82727;SDS011;72459;50.110;8.750;2024-01-16T03:28:52;7.40;;;3.53;;
82727;SDS011;72459;50.110;8.750;2024-01-16T03:31:17;6.77;;;2.63;;
82727;SDS011;72459;50.110;8.750;2024-01-16T03:33:46;5.18;;;2.67;;
82727;SDS011;72459;50.110;8.750;2024-01-16T03:36:11;6.18;;;2.33;;
82727;SDS011;72459;50.110;8.750;2024-01-16T03:38:38;6.10;;;2.60;;
82727;SDS011;72459;50.110;8.750;2024-01-16T03:41:04;6.85;;;3.03;;
82727;SDS011;72459;50.110;8.750;2024-01-16T03:43:32;4.57;;;2.50;;
82727;SDS011;72459;50.110;8.750;2024-01-16T03:45:58;8.10;;;2.80;;
82727;SDS011;72459;50.110;8.750;2024-01-16T03:48:24;6.35;;;3.45;;
82727;SDS011;72459;50.110;8.750;2024-01-16T03:50:49;7.47;;;2.63;;
82727;SDS011;72459;50.110;8.750;2024-01-16T03:53:15;7.30;;;2.80;;
82727;SDS011;72459;50.110;8.750;2024-01-16T03:55:41;7.80;;;2.80;;
82727;SDS011;72459;50.110;8.750;2024-01-16T03:58:06;6.82;;;2.95;;
82727;SDS011;72459;50.110;8.750;2024-01-16T04:00:32;6.65;;;2.70;;
82727;SDS011;72459;50.110;8.750;2024-01-16T04:02:58;5.07;;;2.90;;
82727;SDS011;72459;50.110;8.750;2024-01-16T04:05:23;8.02;;;3.08;;
82727;SDS011;72459;50.110;8.750;2024-01-16T04:07:49;7.53;;;2.53;;
82727;SDS011;72459;50.110;8.750;2024-01-16T04:10:14;4.30;;;2.70;;
82727;SDS011;72459;50.110;8.750;2024-01-16T04:12:40;5.35;;;2.88;;
82727;SDS011;72459;50.110;8.750;2024-01-16T04:15:06;4.75;;;3.00;;
82727;SDS011;72459;50.110;8.750;2024-01-16T04:17:32;3.95;;;1.92;;
82727;SDS011;72459;50.110;8.750;2024-01-16T04:19:57;5.37;;;2.53;;
82727;SDS011;72459;50.110;8.750;2024-01-16T04:22:23;4.70;;;2.63;;
82727;SDS011;72459;50.110;8.750;2024-01-16T04:24:48;7.07;;;3.03;;
82727;SDS011;72459;50.110;8.750;2024-01-16T04:27:14;7.43;;;2.88;;
82727;SDS011;72459;50.110;8.750;2024-01-16T04:29:40;5.80;;;2.72;;
82727;SDS011;72459;50.110;8.750;2024-01-16T04:32:05;7.38;;;3.35;;
82727;SDS011;72459;50.110;8.750;2024-01-16T04:34:30;4.78;;;2.58;;
82727;SDS011;72459;50.110;8.750;2024-01-16T04:36:56;5.97;;;2.90;;
82727;SDS011;72459;50.110;8.750;2024-01-16T04:39:21;6.20;;;3.00;;
82727;SDS011;72459;50.110;8.750;2024-01-16T04:41:49;6.30;;;3.10;;
82727;SDS011;72459;50.110;8.750;2024-01-16T04:44:15;6.13;;;3.13;;
82727;SDS011;72459;50.110;8.750;2024-01-16T04:46:40;6.80;;;3.00;;
82727;SDS011;72459;50.110;8.750;2024-01-16T04:49:06;8.18;;;3.30;;
82727;SDS011;72459;50.110;8.750;2024-01-16T04:51:31;6.78;;;3.58;;
82727;SDS011;72459;50.110;8.750;2024-01-16T04:53:56;10.13;;;3.50;;
82727;SDS011;72459;50.110;8.750;2024-01-16T04:56:22;5.70;;;3.10;;
82727;SDS011;72459;50.110;8.750;2024-01-16T04:58:48;6.05;;;3.08;;
82727;SDS011;72459;50.110;8.750;2024-01-16T05:01:13;6.72;;;2.90;;
82727;SDS011;72459;50.110;8.750;2024-01-16T05:03:39;7.18;;;4.05;;
82727;SDS011;72459;50.110;8.750;2024-01-16T05:06:04;6.90;;;3.22;;
82727;SDS011;72459;50.110;8.750;2024-01-16T05:08:30;5.65;;;2.95;;
82727;SDS011;72459;50.110;8.750;2024-01-16T05:10:56;6.87;;;3.20;;
82727;SDS011;72459;50.110;8.750;2024-01-16T05:13:22;6.63;;;3.30;;
82727;SDS011;72459;50.110;8.750;2024-01-16T05:15:47;4.22;;;2.88;;
82727;SDS011;72459;50.110;8.750;2024-01-16T05:18:12;6.53;;;2.85;;
82727;SDS011;72459;50.110;8.750;2024-01-16T05:20:38;6.07;;;2.88;;
82727;SDS011;72459;50.110;8.750;2024-01-16T05:23:05;5.35;;;3.03;;
82727;SDS011;72459;50.110;8.750;2024-01-16T05:25:31;7.07;;;3.50;;
82727;SDS011;72459;50.110;8.750;2024-01-16T05:27:56;4.15;;;2.95;;
82727;SDS011;72459;50.110;8.750;2024-01-16T05:30:21;4.90;;;2.47;;
82727;SDS011;72459;50.110;8.750;2024-01-16T05:32:47;6.07;;;2.90;;
82727;SDS011;72459;50.110;8.750;2024-01-16T05:35:12;7.85;;;2.72;;
82727;SDS011;72459;50.110;8.750;2024-01-16T05:37:37;8.00;;;3.30;;
82727;SDS011;72459;50.110;8.750;2024-01-16T05:40:03;5.65;;;3.25;;
82727;SDS011;72459;50.110;8.750;2024-01-16T05:42:29;5.68;;;3.17;;
82727;SDS011;72459;50.110;8.750;2024-01-16T05:44:55;9.25;;;3.20;;
82727;SDS011;72459;50.110;8.750;2024-01-16T05:47:21;7.03;;;3.25;;
82727;SDS011;72459;50.110;8.750;2024-01-16T05:49:49;7.00;;;3.00;;
82727;SDS011;72459;50.110;8.750;2024-01-16T05:52:14;8.30;;;3.17;;
82727;SDS011;72459;50.110;8.750;2024-01-16T05:54:39;7.35;;;3.53;;
82727;SDS011;72459;50.110;8.750;2024-01-16T05:57:05;6.20;;;2.85;;
82727;SDS011;72459;50.110;8.750;2024-01-16T05:59:30;7.70;;;3.63;;
82727;SDS011;72459;50.110;8.750;2024-01-16T06:01:56;5.63;;;2.77;;
82727;SDS011;72459;50.110;8.750;2024-01-16T06:04:21;5.10;;;3.08;;
82727;SDS011;72459;50.110;8.750;2024-01-16T06:06:46;7.03;;;3.58;;
82727;SDS011;72459;50.110;8.750;2024-01-16T06:09:12;7.07;;;3.03;;
82727;SDS011;72459;50.110;8.750;2024-01-16T06:11:39;5.70;;;2.92;;
82727;SDS011;72459;50.110;8.750;2024-01-16T06:14:06;6.18;;;3.30;;
82727;SDS011;72459;50.110;8.750;2024-01-16T06:16:32;9.73;;;3.15;;
82727;SDS011;72459;50.110;8.750;2024-01-16T06:18:57;10.60;;;3.53;;
82727;SDS011;72459;50.110;8.750;2024-01-16T06:21:23;4.80;;;3.10;;
82727;SDS011;72459;50.110;8.750;2024-01-16T06:23:49;8.32;;;3.75;;
82727;SDS011;72459;50.110;8.750;2024-01-16T06:26:14;7.10;;;3.03;;
82727;SDS011;72459;50.110;8.750;2024-01-16T06:28:40;8.82;;;3.33;;
82727;SDS011;72459;50.110;8.750;2024-01-16T06:31:07;5.70;;;2.40;;
82727;SDS011;72459;50.110;8.750;2024-01-16T06:33:33;8.13;;;3.75;;
82727;SDS011;72459;50.110;8.750;2024-01-16T06:35:59;5.35;;;3.28;;
82727;SDS011;72459;50.110;8.750;2024-01-16T06:38:24;6.78;;;2.80;;
82727;SDS011;72459;50.110;8.750;2024-01-16T06:40:50;7.13;;;3.33;;
82727;SDS011;72459;50.110;8.750;2024-01-16T06:43:15;5.97;;;3.25;;
82727;SDS011;72459;50.110;8.750;2024-01-16T06:45:42;6.40;;;3.13;;
82727;SDS011;72459;50.110;8.750;2024-01-16T06:48:07;7.18;;;4.03;;
82727;SDS011;72459;50.110;8.750;2024-01-16T06:50:33;9.15;;;3.67;;
82727;SDS011;72459;50.110;8.750;2024-01-16T06:52:58;9.98;;;4.53;;
82727;SDS011;72459;50.110;8.750;2024-01-16T06:55:24;9.65;;;3.83;;
82727;SDS011;72459;50.110;8.750;2024-01-16T06:57:50;6.72;;;3.45;;
82727;SDS011;72459;50.110;8.750;2024-01-16T07:00:15;7.10;;;4.47;;
82727;SDS011;72459;50.110;8.750;2024-01-16T07:02:41;8.02;;;3.72;;
82727;SDS011;72459;50.110;8.750;2024-01-16T07:05:08;6.13;;;3.63;;
82727;SDS011;72459;50.110;8.750;2024-01-16T07:07:34;7.03;;;3.60;;
82727;SDS011;72459;50.110;8.750;2024-01-16T07:10:00;8.10;;;3.72;;
82727;SDS011;72459;50.110;8.750;2024-01-16T07:12:25;7.23;;;3.30;;
82727;SDS011;72459;50.110;8.750;2024-01-16T07:14:50;9.38;;;3.83;;
82727;SDS011;72459;50.110;8.750;2024-01-16T07:17:16;9.63;;;4.15;;
82727;SDS011;72459;50.110;8.750;2024-01-16T07:19:41;8.75;;;3.80;;
82727;SDS011;72459;50.110;8.750;2024-01-16T07:22:07;7.40;;;3.88;;
82727;SDS011;72459;50.110;8.750;2024-01-16T07:24:32;10.27;;;4.07;;
82727;SDS011;72459;50.110;8.750;2024-01-16T07:26:57;10.55;;;3.95;;
82727;SDS011;72459;50.110;8.750;2024-01-16T07:29:23;8.30;;;4.07;;
82727;SDS011;72459;50.110;8.750;2024-01-16T07:31:48;7.47;;;4.13;;
82727;SDS011;72459;50.110;8.750;2024-01-16T07:34:14;7.50;;;4.05;;
82727;SDS011;72459;50.110;8.750;2024-01-16T07:36:44;7.78;;;4.35;;
82727;SDS011;72459;50.110;8.750;2024-01-16T07:39:10;8.75;;;4.30;;
82727;SDS011;72459;50.110;8.750;2024-01-16T07:41:36;7.15;;;3.47;;
82727;SDS011;72459;50.110;8.750;2024-01-16T07:44:01;8.33;;;3.30;;
82727;SDS011;72459;50.110;8.750;2024-01-16T07:46:27;8.38;;;3.72;;
82727;SDS011;72459;50.110;8.750;2024-01-16T07:48:54;8.10;;;3.80;;
82727;SDS011;72459;50.110;8.750;2024-01-16T07:51:19;6.63;;;3.67;;
82727;SDS011;72459;50.110;8.750;2024-01-16T07:53:45;8.70;;;3.80;;
82727;SDS011;72459;50.110;8.750;2024-01-16T07:56:10;11.45;;;3.90;;
82727;SDS011;72459;50.110;8.750;2024-01-16T07:58:36;9.80;;;4.10;;
82727;SDS011;72459;50.110;8.750;2024-01-16T08:01:02;8.88;;;4.40;;
82727;SDS011;72459;50.110;8.750;2024-01-16T08:03:27;7.43;;;4.38;;
82727;SDS011;72459;50.110;8.750;2024-01-16T08:05:53;7.95;;;3.78;;
82727;SDS011;72459;50.110;8.750;2024-01-16T08:08:18;11.27;;;4.20;;
82727;SDS011;72459;50.110;8.750;2024-01-16T08:10:44;8.32;;;3.97;;
82727;SDS011;72459;50.110;8.750;2024-01-16T08:13:09;8.23;;;3.85;;
82727;SDS011;72459;50.110;8.750;2024-01-16T08:15:35;7.10;;;3.80;;
82727;SDS011;72459;50.110;8.750;2024-01-16T08:18:02;9.57;;;4.28;;
82727;SDS011;72459;50.110;8.750;2024-01-16T08:20:27;11.60;;;4.10;;
82727;SDS011;72459;50.110;8.750;2024-01-16T08:22:53;7.32;;;4.28;;
82727;SDS011;72459;50.110;8.750;2024-01-16T08:25:18;6.28;;;4.13;;
82727;SDS011;72459;50.110;8.750;2024-01-16T08:27:44;9.57;;;4.07;;
82727;SDS011;72459;50.110;8.750;2024-01-16T08:30:09;8.00;;;3.95;;
82727;SDS011;72459;50.110;8.750;2024-01-16T08:32:36;9.48;;;4.45;;
82727;SDS011;72459;50.110;8.750;2024-01-16T08:35:01;10.15;;;3.78;;
82727;SDS011;72459;50.110;8.750;2024-01-16T08:37:28;6.53;;;4.03;;
82727;SDS011;72459;50.110;8.750;2024-01-16T08:39:53;9.77;;;4.50;;
82727;SDS011;72459;50.110;8.750;2024-01-16T08:42:18;8.60;;;4.07;;
82727;SDS011;72459;50.110;8.750;2024-01-16T08:44:44;12.32;;;4.07;;
82727;SDS011;72459;50.110;8.750;2024-01-16T08:47:09;8.30;;;3.80;;
82727;SDS011;72459;50.110;8.750;2024-01-16T08:49:35;6.20;;;3.47;;
82727;SDS011;72459;50.110;8.750;2024-01-16T08:52:01;6.47;;;3.78;;
82727;SDS011;72459;50.110;8.750;2024-01-16T08:54:27;8.80;;;4.28;;
82727;SDS011;72459;50.110;8.750;2024-01-16T08:56:53;7.97;;;3.95;;
82727;SDS011;72459;50.110;8.750;2024-01-16T08:59:18;7.35;;;4.03;;
82727;SDS011;72459;50.110;8.750;2024-01-16T09:01:44;7.55;;;3.95;;
82727;SDS011;72459;50.110;8.750;2024-01-16T09:04:10;8.82;;;3.90;;
82727;SDS011;72459;50.110;8.750;2024-01-16T09:06:36;7.20;;;4.32;;
82727;SDS011;72459;50.110;8.750;2024-01-16T09:09:02;9.95;;;4.43;;
82727;SDS011;72459;50.110;8.750;2024-01-16T09:11:29;4.28;;;2.65;;
82727;SDS011;72459;50.110;8.750;2024-01-16T09:13:55;9.48;;;4.05;;
82727;SDS011;72459;50.110;8.750;2024-01-16T09:16:21;7.32;;;3.92;;
82727;SDS011;72459;50.110;8.750;2024-01-16T09:18:46;7.40;;;3.73;;
82727;SDS011;72459;50.110;8.750;2024-01-16T09:21:11;10.47;;;4.47;;
82727;SDS011;72459;50.110;8.750;2024-01-16T09:23:38;6.80;;;4.70;;
82727;SDS011;72459;50.110;8.750;2024-01-16T09:26:03;7.22;;;2.58;;
82727;SDS011;72459;50.110;8.750;2024-01-16T09:28:28;8.70;;;4.23;;
82727;SDS011;72459;50.110;8.750;2024-01-16T09:30:54;8.77;;;3.87;;
82727;SDS011;72459;50.110;8.750;2024-01-16T09:33:21;7.68;;;3.58;;
82727;SDS011;72459;50.110;8.750;2024-01-16T09:35:47;6.15;;;3.45;;
82727;SDS011;72459;50.110;8.750;2024-01-16T09:38:13;9.57;;;4.25;;
82727;SDS011;72459;50.110;8.750;2024-01-16T09:40:38;11.95;;;4.18;;
82727;SDS011;72459;50.110;8.750;2024-01-16T09:43:04;7.60;;;4.07;;
82727;SDS011;72459;50.110;8.750;2024-01-16T09:45:29;6.38;;;3.58;;
82727;SDS011;72459;50.110;8.750;2024-01-16T09:47:55;8.00;;;4.20;;
82727;SDS011;72459;50.110;8.750;2024-01-16T09:50:22;7.82;;;3.97;;
82727;SDS011;72459;50.110;8.750;2024-01-16T09:52:47;7.95;;;4.13;;
82727;SDS011;72459;50.110;8.750;2024-01-16T09:55:14;10.05;;;4.25;;
82727;SDS011;72459;50.110;8.750;2024-01-16T09:57:40;6.60;;;3.78;;
82727;SDS011;72459;50.110;8.750;2024-01-16T10:00:09;9.20;;;4.15;;
82727;SDS011;72459;50.110;8.750;2024-01-16T10:02:39;6.40;;;3.90;;
82727;SDS011;72459;50.110;8.750;2024-01-16T10:05:09;8.77;;;3.78;;
82727;SDS011;72459;50.110;8.750;2024-01-16T10:07:37;6.32;;;3.10;;
82727;SDS011;72459;50.110;8.750;2024-01-16T10:10:03;6.65;;;4.03;;
82727;SDS011;72459;50.110;8.750;2024-01-16T10:12:29;8.73;;;4.00;;
82727;SDS011;72459;50.110;8.750;2024-01-16T10:14:55;8.88;;;4.00;;
82727;SDS011;72459;50.110;8.750;2024-01-16T10:17:20;9.07;;;3.83;;
82727;SDS011;72459;50.110;8.750;2024-01-16T10:19:50;7.80;;;3.63;;
82727;SDS011;72459;50.110;8.750;2024-01-16T10:22:20;8.85;;;3.75;;
82727;SDS011;72459;50.110;8.750;2024-01-16T10:25:09;5.95;;;3.40;;
82727;SDS011;72459;50.110;8.750;2024-01-16T10:27:41;7.32;;;3.75;;
82727;SDS011;72459;50.110;8.750;2024-01-16T10:30:07;10.07;;;4.80;;
82727;SDS011;72459;50.110;8.750;2024-01-16T10:32:34;11.02;;;3.95;;
82727;SDS011;72459;50.110;8.750;2024-01-16T10:35:03;6.05;;;3.55;;
82727;SDS011;72459;50.110;8.750;2024-01-16T10:37:31;8.32;;;4.40;;
82727;SDS011;72459;50.110;8.750;2024-01-16T10:40:06;7.45;;;3.15;;
82727;SDS011;72459;50.110;8.750;2024-01-16T10:42:39;7.85;;;4.20;;
82727;SDS011;72459;50.110;8.750;2024-01-16T10:45:05;9.15;;;3.72;;
82727;SDS011;72459;50.110;8.750;2024-01-16T10:47:31;6.22;;;3.30;;
82727;SDS011;72459;50.110;8.750;2024-01-16T10:50:00;6.00;;;2.83;;
82727;SDS011;72459;50.110;8.750;2024-01-16T10:52:27;6.40;;;3.80;;
82727;SDS011;72459;50.110;8.750;2024-01-16T10:54:52;6.18;;;3.67;;
82727;SDS011;72459;50.110;8.750;2024-01-16T10:57:22;7.43;;;3.45;;
82727;SDS011;72459;50.110;8.750;2024-01-16T11:00:02;10.43;;;4.03;;
82727;SDS011;72459;50.110;8.750;2024-01-16T11:02:32;7.03;;;3.65;;
82727;SDS011;72459;50.110;8.750;2024-01-16T11:05:12;6.63;;;3.47;;
82727;SDS011;72459;50.110;8.750;2024-01-16T11:07:40;8.55;;;3.47;;
82727;SDS011;72459;50.110;8.750;2024-01-16T11:10:09;5.68;;;3.25;;
82727;SDS011;72459;50.110;8.750;2024-01-16T11:12:35;9.13;;;3.63;;
82727;SDS011;72459;50.110;8.750;2024-01-16T11:15:04;7.47;;;3.47;;
82727;SDS011;72459;50.110;8.750;2024-01-16T11:17:32;6.70;;;3.70;;
82727;SDS011;72459;50.110;8.750;2024-01-16T11:20:00;7.70;;;3.53;;
82727;SDS011;72459;50.110;8.750;2024-01-16T11:22:26;6.50;;;3.63;;
82727;SDS011;72459;50.110;8.750;2024-01-16T11:25:12;5.22;;;3.25;;
82727;SDS011;72459;50.110;8.750;2024-01-16T11:27:39;6.90;;;3.70;;
82727;SDS011;72459;50.110;8.750;2024-01-16T11:30:06;10.85;;;3.63;;
82727;SDS011;72459;50.110;8.750;2024-01-16T11:32:33;7.22;;;3.33;;
82727;SDS011;72459;50.110;8.750;2024-01-16T11:35:01;5.90;;;3.15;;
82727;SDS011;72459;50.110;8.750;2024-01-16T11:37:28;5.38;;;2.97;;
82727;SDS011;72459;50.110;8.750;2024-01-16T11:42:43;7.05;;;2.90;;
82727;SDS011;72459;50.110;8.750;2024-01-16T11:48:11;5.85;;;3.20;;
82727;SDS011;72459;50.110;8.750;2024-01-16T11:50:41;7.15;;;3.28;;
82727;SDS011;72459;50.110;8.750;2024-01-16T11:53:07;6.82;;;3.45;;
82727;SDS011;72459;50.110;8.750;2024-01-16T12:01:19;8.00;;;3.50;;
82727;SDS011;72459;50.110;8.750;2024-01-16T12:03:46;7.80;;;3.70;;
82727;SDS011;72459;50.110;8.750;2024-01-16T12:06:31;7.93;;;3.63;;
82727;SDS011;72459;50.110;8.750;2024-01-16T12:09:15;8.27;;;3.30;;
82727;SDS011;72459;50.110;8.750;2024-01-16T12:11:44;7.72;;;3.40;;
82727;SDS011;72459;50.110;8.750;2024-01-16T12:14:22;8.60;;;3.53;;
82727;SDS011;72459;50.110;8.750;2024-01-16T12:16:48;7.50;;;3.80;;
82727;SDS011;72459;50.110;8.750;2024-01-16T12:19:13;8.18;;;3.58;;
82727;SDS011;72459;50.110;8.750;2024-01-16T12:21:39;7.95;;;3.85;;
82727;SDS011;72459;50.110;8.750;2024-01-16T12:24:09;7.38;;;3.80;;
82727;SDS011;72459;50.110;8.750;2024-01-16T12:26:35;7.15;;;3.85;;
82727;SDS011;72459;50.110;8.750;2024-01-16T12:29:00;7.30;;;3.55;;
82727;SDS011;72459;50.110;8.750;2024-01-16T12:31:27;7.28;;;3.42;;
82727;SDS011;72459;50.110;8.750;2024-01-16T12:33:53;7.72;;;3.92;;
82727;SDS011;72459;50.110;8.750;2024-01-16T12:36:19;8.32;;;3.72;;
82727;SDS011;72459;50.110;8.750;2024-01-16T12:38:45;8.60;;;3.70;;
82727;SDS011;72459;50.110;8.750;2024-01-16T12:41:19;6.47;;;3.55;;
82727;SDS011;72459;50.110;8.750;2024-01-16T12:43:48;6.72;;;3.83;;
82727;SDS011;72459;50.110;8.750;2024-01-16T12:46:15;8.55;;;3.03;;
82727;SDS011;72459;50.110;8.750;2024-01-16T12:48:41;5.70;;;3.20;;
82727;SDS011;72459;50.110;8.750;2024-01-16T12:51:06;6.82;;;2.95;;
82727;SDS011;72459;50.110;8.750;2024-01-16T12:53:32;8.32;;;3.78;;
82727;SDS011;72459;50.110;8.750;2024-01-16T12:55:59;8.52;;;3.10;;
82727;SDS011;72459;50.110;8.750;2024-01-16T12:58:25;7.68;;;3.22;;
82727;SDS011;72459;50.110;8.750;2024-01-16T13:01:04;6.53;;;3.42;;
82727;SDS011;72459;50.110;8.750;2024-01-16T13:03:48;5.57;;;2.80;;
82727;SDS011;72459;50.110;8.750;2024-01-16T13:06:19;8.13;;;2.80;;
82727;SDS011;72459;50.110;8.750;2024-01-16T13:08:46;7.07;;;3.20;;
82727;SDS011;72459;50.110;8.750;2024-01-16T13:11:12;8.65;;;3.90;;
82727;SDS011;72459;50.110;8.750;2024-01-16T13:13:40;7.95;;;2.92;;
82727;SDS011;72459;50.110;8.750;2024-01-16T13:16:06;6.13;;;2.90;;
82727;SDS011;72459;50.110;8.750;2024-01-16T13:18:32;6.05;;;3.05;;
82727;SDS011;72459;50.110;8.750;2024-01-16T13:20:58;9.63;;;3.15;;
82727;SDS011;72459;50.110;8.750;2024-01-16T13:23:24;7.53;;;2.60;;
82727;SDS011;72459;50.110;8.750;2024-01-16T13:25:51;8.25;;;2.90;;
82727;SDS011;72459;50.110;8.750;2024-01-16T13:28:18;7.90;;;2.83;;
82727;SDS011;72459;50.110;8.750;2024-01-16T13:30:46;9.40;;;2.50;;
82727;SDS011;72459;50.110;8.750;2024-01-16T13:33:13;7.60;;;3.13;;
82727;SDS011;72459;50.110;8.750;2024-01-16T13:35:42;8.18;;;2.85;;
82727;SDS011;72459;50.110;8.750;2024-01-16T13:38:09;8.05;;;2.78;;
82727;SDS011;72459;50.110;8.750;2024-01-16T13:40:35;7.28;;;2.75;;
82727;SDS011;72459;50.110;8.750;2024-01-16T13:43:02;5.80;;;3.00;;
82727;SDS011;72459;50.110;8.750;2024-01-16T13:45:31;7.53;;;2.78;;
82727;SDS011;72459;50.110;8.750;2024-01-16T13:47:57;8.63;;;3.13;;
82727;SDS011;72459;50.110;8.750;2024-01-16T13:50:22;7.75;;;2.85;;
82727;SDS011;72459;50.110;8.750;2024-01-16T13:52:49;5.65;;;2.80;;
82727;SDS011;72459;50.110;8.750;2024-01-16T13:55:14;7.20;;;3.42;;
82727;SDS011;72459;50.110;8.750;2024-01-16T13:57:40;7.40;;;3.33;;
82727;SDS011;72459;50.110;8.750;2024-01-16T14:00:07;8.95;;;3.35;;
82727;SDS011;72459;50.110;8.750;2024-01-16T14:02:38;5.53;;;3.08;;
82727;SDS011;72459;50.110;8.750;2024-01-16T14:05:14;9.80;;;3.20;;
82727;SDS011;72459;50.110;8.750;2024-01-16T14:07:41;5.78;;;3.00;;
82727;SDS011;72459;50.110;8.750;2024-01-16T14:10:10;7.63;;;3.40;;
82727;SDS011;72459;50.110;8.750;2024-01-16T14:12:37;7.40;;;3.70;;
82727;SDS011;72459;50.110;8.750;2024-01-16T14:15:10;10.60;;;3.72;;
82727;SDS011;72459;50.110;8.750;2024-01-16T14:17:43;7.32;;;3.83;;
82727;SDS011;72459;50.110;8.750;2024-01-16T14:20:10;8.77;;;5.18;;
82727;SDS011;72459;50.110;8.750;2024-01-16T14:22:37;8.70;;;3.15;;
82727;SDS011;72459;50.110;8.750;2024-01-16T14:25:03;5.95;;;2.88;;
82727;SDS011;72459;50.110;8.750;2024-01-16T14:27:35;7.43;;;3.47;;
82727;SDS011;72459;50.110;8.750;2024-01-16T14:30:05;11.98;;;3.88;;
82727;SDS011;72459;50.110;8.750;2024-01-16T14:32:41;8.25;;;3.30;;
82727;SDS011;72459;50.110;8.750;2024-01-16T14:35:11;7.05;;;4.28;;
82727;SDS011;72459;50.110;8.750;2024-01-16T14:37:38;8.40;;;3.38;;
82727;SDS011;72459;50.110;8.750;2024-01-16T14:40:04;9.77;;;3.55;;
82727;SDS011;72459;50.110;8.750;2024-01-16T14:42:40;7.45;;;3.42;;
82727;SDS011;72459;50.110;8.750;2024-01-16T14:45:06;6.43;;;3.17;;
82727;SDS011;72459;50.110;8.750;2024-01-16T14:47:33;7.72;;;3.55;;
82727;SDS011;72459;50.110;8.750;2024-01-16T14:49:59;7.05;;;3.38;;
82727;SDS011;72459;50.110;8.750;2024-01-16T14:52:24;7.28;;;3.90;;
82727;SDS011;72459;50.110;8.750;2024-01-16T14:54:50;6.28;;;3.00;;
82727;SDS011;72459;50.110;8.750;2024-01-16T14:57:15;8.68;;;3.42;;